Time;durP1;ratioP1;P1;durP2;ratioP2;P2;SDS_P1;SDS_P2;PMS_P1;PMS_P2;Temp;Humidity;BMP_temperature;BMP_pressure;BME280_temperature;BME280_humidity;BME280_pressure;Samples;Min_cycle;Max_cycle;Signal;HPM_P1;HPM_P2
2023/07/19 00:04:34;;;;;;;3.28;1.85;;;;;;;19.37;39.23;100326.44;20700052;28;20189;-79
2023/07/19 00:14:38;;;;;;;3.00;1.63;;;;;;;19.16;39.41;100324.13;20684438;28;20213;-79
2023/07/19 00:24:41;;;;;;;3.72;1.95;;;;;;;19.14;39.47;100309.44;20686824;28;20244;-77
2023/07/19 00:34:47;;;;;;;7.75;2.10;;;;;;;18.91;40.27;100309.53;20676487;28;20225;-76
2023/07/19 00:44:53;;;;;;;4.10;1.98;;;;;;;18.73;40.97;100297.06;20704157;28;20657;-77
2023/07/19 00:54:57;;;;;;;4.40;1.92;;;;;;;18.75;41.03;100286.09;20688619;28;20280;-76
2023/07/19 01:05:00;;;;;;;3.72;1.90;;;;;;;18.52;41.91;100283.31;20689400;28;20504;-79
2023/07/19 01:15:08;;;;;;;4.22;1.88;;;;;;;18.28;42.22;100270.31;20679628;28;20519;-76
2023/07/19 01:25:12;;;;;;;3.60;2.22;;;;;;;18.21;42.47;100261.66;20673941;28;20197;-78
2023/07/19 01:35:17;;;;;;;3.50;1.77;;;;;;;18.44;41.92;100259.59;20674660;28;20221;-79
2023/07/19 01:45:20;;;;;;;5.72;2.30;;;;;;;18.50;42.35;100248.66;20701717;28;20185;-76
2023/07/19 01:55:26;;;;;;;3.83;1.95;;;;;;;18.42;42.59;100236.34;20703296;28;20256;-78
2023/07/19 02:05:30;;;;;;;4.00;1.90;;;;;;;18.57;42.23;100228.84;20696014;28;20495;-76
2023/07/19 02:15:35;;;;;;;4.00;2.15;;;;;;;17.95;43.83;100222.59;20718748;28;20217;-77
2023/07/19 02:25:42;;;;;;;2.95;2.20;;;;;;;17.67;44.35;100220.06;20702840;28;20256;-79
2023/07/19 02:35:52;;;;;;;3.78;2.08;;;;;;;17.96;43.31;100215.69;20711435;28;20220;-76
2023/07/19 02:45:57;;;;;;;3.13;2.25;;;;;;;17.63;44.56;100213.50;20692826;28;20217;-79
2023/07/19 02:56:01;;;;;;;2.45;2.05;;;;;;;17.11;46.54;100219.81;20724550;28;20487;-77
2023/07/19 03:06:04;;;;;;;4.55;2.00;;;;;;;17.79;44.79;100219.06;20743098;28;20587;-76
2023/07/19 03:16:07;;;;;;;4.80;1.92;;;;;;;17.71;44.77;100220.94;20704455;28;20291;-78
2023/07/19 03:26:10;;;;;;;4.65;2.10;;;;;;;17.92;44.84;100227.00;20687865;28;20197;-79
2023/07/19 03:36:12;;;;;;;4.57;1.92;;;;;;;17.49;46.03;100224.63;20685580;28;20224;-79
2023/07/19 03:46:15;;;;;;;2.53;1.92;;;;;;;17.19;47.58;100222.41;20688176;28;20192;-78
2023/07/19 03:56:18;;;;;;;7.97;2.67;;;;;;;17.44;45.83;100234.28;20702548;28;20225;-76
2023/07/19 04:06:21;;;;;;;3.97;2.38;;;;;;;17.74;44.20;100247.81;20709388;28;20197;-78
2023/07/19 04:16:24;;;;;;;6.88;2.50;;;;;;;18.16;43.34;100253.44;20715008;28;20249;-77
2023/07/19 04:26:27;;;;;;;5.72;2.17;;;;;;;17.97;43.06;100259.22;20674271;28;20268;-76
2023/07/19 04:36:31;;;;;;;8.73;2.58;;;;;;;17.90;43.88;100246.50;20690080;28;20221;-80
2023/07/19 04:46:35;;;;;;;5.97;2.40;;;;;;;18.55;42.79;100252.00;20712969;28;20614;-78
2023/07/19 04:56:38;;;;;;;6.65;2.40;;;;;;;18.46;42.81;100254.31;20709027;28;20307;-78
2023/07/19 05:06:41;;;;;;;6.03;2.70;;;;;;;18.93;42.85;100248.06;20728690;28;20614;-76
2023/07/19 05:16:44;;;;;;;7.18;2.92;;;;;;;19.12;42.19;100255.63;20700210;28;20280;-78
2023/07/19 05:26:47;;;;;;;6.50;2.40;;;;;;;18.55;42.65;100254.03;20712607;28;20278;-75
2023/07/19 05:36:49;;;;;;;5.05;2.58;;;;;;;19.32;41.68;100262.00;20694012;28;20217;-77
2023/07/19 05:46:52;;;;;;;9.55;2.60;;;;;;;19.00;41.39;100258.72;20702274;28;20193;-76
2023/07/19 05:56:55;;;;;;;6.50;2.28;;;;;;;19.47;40.43;100254.44;20705194;28;20261;-78
2023/07/19 06:06:57;;;;;;;5.82;2.95;;;;;;;19.54;40.45;100261.03;20677426;28;20217;-76
2023/07/19 06:17:00;;;;;;;3.45;2.17;;;;;;;19.26;40.94;100252.94;20708901;28;20233;-77
2023/07/19 06:27:03;;;;;;;4.57;2.17;;;;;;;19.36;40.38;100253.47;20729638;28;20265;-77
2023/07/19 06:37:05;;;;;;;4.32;2.58;;;;;;;19.28;41.31;100253.41;20699929;28;20243;-78
2023/07/19 06:47:08;;;;;;;7.95;2.40;;;;;;;19.14;43.44;100246.69;20723575;28;20205;-78
2023/07/19 06:57:11;;;;;;;6.05;2.60;;;;;;;19.02;42.24;100256.31;20719179;28;20285;-78
2023/07/19 07:07:15;;;;;;;4.13;2.30;;;;;;;19.32;42.43;100282.81;20703441;28;20262;-77
2023/07/19 07:17:17;;;;;;;5.35;2.60;;;;;;;19.53;44.47;100275.69;20707282;28;20463;-79
2023/07/19 07:27:20;;;;;;;4.85;2.58;;;;;;;19.18;46.39;100285.47;20696313;28;20193;-77
2023/07/19 07:37:22;;;;;;;8.52;2.65;;;;;;;20.07;44.09;100265.63;20703279;28;20558;-80
2023/07/19 07:47:26;;;;;;;10.45;3.10;;;;;;;20.08;42.54;100281.53;20707767;28;20253;-80
2023/07/19 07:57:31;;;;;;;6.15;2.97;;;;;;;20.50;42.70;100270.44;20728382;28;20558;-77
2023/07/19 08:07:33;;;;;;;11.40;3.35;;;;;;;20.26;43.92;100276.81;20705241;28;20193;-79
2023/07/19 08:17:36;;;;;;;8.95;3.03;;;;;;;20.47;43.30;100284.69;20697516;28;20228;-79
2023/07/19 08:27:39;;;;;;;7.72;3.15;;;;;;;20.12;44.72;100274.66;20714463;28;20193;-77
2023/07/19 08:37:44;;;;;;;11.45;3.72;;;;;;;20.09;44.40;100268.91;20699116;28;20614;-78
2023/07/19 08:47:47;;;;;;;7.70;3.55;;;;;;;20.20;44.06;100269.81;20675037;28;20253;-77
2023/07/19 08:57:50;;;;;;;12.23;4.28;;;;;;;20.40;43.00;100256.88;20675345;28;20271;-78
2023/07/19 09:07:52;;;;;;;7.47;3.65;;;;;;;21.06;41.90;100260.53;20704779;28;20201;-78
2023/07/19 09:17:55;;;;;;;7.38;4.07;;;;;;;20.90;42.78;100258.03;20694655;28;20252;-80
2023/07/19 09:27:58;;;;;;;8.02;3.60;;;;;;;19.85;43.48;100248.28;20695980;28;20201;-78
2023/07/19 09:38:00;;;;;;;7.78;3.40;;;;;;;19.92;43.70;100248.31;20693180;28;20610;-78
2023/07/19 09:48:05;;;;;;;5.10;3.20;;;;;;;20.02;43.56;100256.19;20668886;28;20233;-77
2023/07/19 09:58:13;;;;;;;10.40;4.10;;;;;;;20.46;43.63;100246.72;20702638;28;20275;-79
2023/07/19 10:08:15;;;;;;;8.90;2.85;;;;;;;20.94;44.25;100250.25;20677300;28;20222;-81
2023/07/19 10:18:18;;;;;;;8.38;3.05;;;;;;;20.39;43.94;100240.97;20710437;28;20529;-79
2023/07/19 10:28:29;;;;;;;7.43;2.92;;;;;;;20.35;44.60;100238.06;20694439;28;20268;-77
2023/07/19 10:38:32;;;;;;;6.45;2.83;;;;;;;20.92;44.30;100231.84;20694987;28;20228;-79
2023/07/19 10:48:37;;;;;;;6.63;2.75;;;;;;;20.72;44.30;100239.94;20709834;28;20233;-80
2023/07/19 10:58:43;;;;;;;5.80;3.15;;;;;;;22.25;40.40;100221.06;20683944;28;20217;-79
2023/07/19 11:08:46;;;;;;;6.25;2.83;;;;;;;22.40;40.30;100224.75;20683781;28;20201;-79
2023/07/19 11:18:49;;;;;;;4.25;3.20;;;;;;;21.09;41.97;100209.03;20689873;28;20279;-79
2023/07/19 11:28:56;;;;;;;11.25;3.55;;;;;;;21.69;41.05;100211.22;20691969;28;20621;-79
2023/07/19 11:39:00;;;;;;;6.20;2.97;;;;;;;21.95;40.70;100210.03;20686559;28;20626;-80
2023/07/19 11:49:02;;;;;;;8.85;3.63;;;;;;;22.07;40.45;100189.56;20679215;28;20225;-79
2023/07/19 11:59:05;;;;;;;6.80;3.20;;;;;;;22.30;40.30;100183.38;20692818;28;20283;-79
2023/07/19 12:09:09;;;;;;;9.90;3.50;;;;;;;22.53;38.45;100176.38;20691891;28;20243;-80
2023/07/19 12:19:13;;;;;;;12.30;2.78;;;;;;;24.13;37.21;100161.84;20691267;28;20711;-78
2023/07/19 12:29:17;;;;;;;4.30;2.47;;;;;;;24.33;34.46;100157.09;20706940;28;20193;-79
2023/07/19 12:39:23;;;;;;;6.85;3.17;;;;;;;23.68;33.93;100161.00;20660703;28;20272;-78
2023/07/19 12:49:25;;;;;;;3.83;1.98;;;;;;;22.81;35.41;100148.41;20694909;28;20217;-78
2023/07/19 12:59:28;;;;;;;4.45;1.67;;;;;;;23.75;33.05;100135.09;20665179;28;20222;-80
2023/07/19 13:09:30;;;;;;;4.53;1.73;;;;;;;24.38;32.14;100124.19;20680683;28;20447;-80
2023/07/19 13:19:33;;;;;;;5.65;2.35;;;;;;;23.91;33.62;100118.06;20694142;28;20291;-78
2023/07/19 13:29:35;;;;;;;8.05;2.38;;;;;;;24.30;33.90;100122.63;20682841;28;20193;-78
2023/07/19 13:39:40;;;;;;;8.27;2.70;;;;;;;23.22;34.04;100133.44;20690345;28;20220;-78
2023/07/19 13:49:43;;;;;;;5.82;2.13;;;;;;;23.79;34.53;100118.63;20678207;28;20247;-80
2023/07/19 13:59:46;;;;;;;6.10;1.73;;;;;;;22.89;33.93;100108.19;20695297;28;20491;-80
2023/07/19 14:09:48;;;;;;;3.40;1.15;;;;;;;24.16;32.33;100106.38;20714895;28;20190;-79
2023/07/19 14:19:52;;;;;;;2.65;1.00;;;;;;;23.88;31.47;100087.34;20684381;28;20217;-78
2023/07/19 14:29:56;;;;;;;2.58;0.88;;;;;;;23.67;31.85;100087.53;20719485;28;20194;-80
2023/07/19 14:39:59;;;;;;;2.58;0.80;;;;;;;23.40;32.29;100088.16;20720645;28;20290;-78
2023/07/19 14:50:02;;;;;;;5.82;0.93;;;;;;;23.86;32.62;100099.25;20693581;28;20224;-78
2023/07/19 15:00:09;;;;;;;3.95;1.40;;;;;;;23.44;34.31;100111.91;20691977;28;20275;-79
2023/07/19 15:10:15;;;;;;;3.25;0.50;;;;;;;22.41;33.46;100103.91;20707196;28;20202;-77
2023/07/19 15:20:17;;;;;;;1.35;0.75;;;;;;;22.61;34.67;100114.88;20725389;28;20217;-79
2023/07/19 15:30:20;;;;;;;1.80;0.90;;;;;;;22.40;38.92;100127.25;20706803;28;20236;-80
2023/07/19 15:40:24;;;;;;;4.78;1.38;;;;;;;22.66;38.94;100126.75;20700345;28;20576;-77
2023/07/19 15:50:26;;;;;;;2.00;1.30;;;;;;;22.20;39.70;100123.22;20693164;28;20229;-76
2023/07/19 16:00:30;;;;;;;6.10;1.60;;;;;;;21.33;45.09;100135.13;20690072;28;20225;-79
2023/07/19 16:10:32;;;;;;;1.90;1.17;;;;;;;20.53;45.78;100183.03;20710423;28;20262;-75
2023/07/19 16:20:35;;;;;;;4.85;2.17;;;;;;;19.23;61.72;100193.78;20724963;28;20519;-78
2023/07/19 16:30:39;;;;;;;4.30;1.17;;;;;;;18.84;60.28;100186.81;20685103;28;20205;-76
2023/07/19 16:40:42;;;;;;;2.35;1.35;;;;;;;19.21;61.67;100189.72;20708935;28;20228;-77
2023/07/19 16:50:45;;;;;;;5.35;2.10;;;;;;;19.61;62.12;100188.91;20699940;28;20217;-76
2023/07/19 17:00:48;;;;;;;4.68;2.53;;;;;;;20.62;58.32;100192.94;20706641;28;20221;-75
2023/07/19 17:10:52;;;;;;;3.38;3.08;;;;;;;20.07;62.75;100191.34;20695326;28;20211;-76
2023/07/19 17:20:55;;;;;;;6.53;3.55;;;;;;;20.35;60.24;100202.97;20709856;28;20217;-77
2023/07/19 17:30:58;;;;;;;5.53;4.30;;;;;;;20.54;62.87;100202.66;20670538;28;20197;-76
2023/07/19 17:41:01;;;;;;;7.25;3.90;;;;;;;20.65;60.54;100203.53;20703857;28;20221;-77
2023/07/19 17:51:04;;;;;;;7.47;3.92;;;;;;;20.24;63.32;100219.22;20707875;28;20495;-77
2023/07/19 18:01:08;;;;;;;6.15;4.75;;;;;;;20.18;62.44;100223.66;20686245;28;20645;-77
2023/07/19 18:11:11;;;;;;;7.50;5.55;;;;;;;20.04;63.83;100219.47;20707293;28;20201;-81
2023/07/19 18:21:13;;;;;;;7.88;5.25;;;;;;;19.51;66.85;100221.84;20699420;28;20217;-78
2023/07/19 18:31:16;;;;;;;5.45;4.88;;;;;;;20.01;64.34;100231.69;20697797;28;20209;-77
2023/07/19 18:41:19;;;;;;;6.05;4.45;;;;;;;19.82;64.35;100220.50;20709903;28;20233;-78
2023/07/19 18:51:22;;;;;;;5.50;4.97;;;;;;;19.92;64.97;100227.50;20659100;28;20251;-79
2023/07/19 19:01:26;;;;;;;7.28;4.82;;;;;;;19.58;64.44;100216.22;20697151;28;20240;-77
2023/07/19 19:11:29;;;;;;;5.85;5.28;;;;;;;19.51;65.11;100215.31;20683907;28;20985;-76
2023/07/19 19:21:32;;;;;;;6.30;5.40;;;;;;;19.74;65.83;100230.22;20686845;28;20287;-80
2023/07/19 19:31:37;;;;;;;5.13;4.63;;;;;;;19.36;63.85;100244.91;20691654;28;20229;-79
2023/07/19 19:41:39;;;;;;;6.13;5.53;;;;;;;19.38;64.33;100251.88;20676499;28;20220;-78
2023/07/19 19:51:42;;;;;;;7.47;6.55;;;;;;;19.32;65.50;100245.72;20694126;28;20233;-78
2023/07/19 20:01:46;;;;;;;8.13;6.03;;;;;;;19.64;63.86;100242.34;20662576;28;20529;-78
2023/07/19 20:11:50;;;;;;;6.57;5.55;;;;;;;19.09;65.95;100261.31;20695611;28;20327;-78
2023/07/19 20:21:53;;;;;;;12.15;6.30;;;;;;;19.40;64.16;100269.44;20680562;28;20224;-78
2023/07/19 20:31:56;;;;;;;7.70;6.40;;;;;;;18.95;64.76;100281.91;20676978;28;20275;-81
2023/07/19 20:42:01;;;;;;;8.10;5.30;;;;;;;18.72;63.22;100284.00;20678073;28;20217;-76
2023/07/19 20:52:04;;;;;;;9.23;4.43;;;;;;;18.97;60.75;100290.88;20682302;28;20625;-78
2023/07/19 21:02:07;;;;;;;6.50;3.75;;;;;;;18.71;59.80;100290.91;20698336;28;20307;-79
2023/07/19 21:12:10;;;;;;;6.38;3.95;;;;;;;18.63;62.10;100296.53;20669720;28;20340;-80
2023/07/19 21:22:16;;;;;;;3.30;2.85;;;;;;;18.54;61.66;100287.41;20694428;28;20217;-80
2023/07/19 21:32:19;;;;;;;4.53;3.60;;;;;;;18.86;60.05;100299.28;20667670;28;20193;-79
2023/07/19 21:42:24;;;;;;;5.28;3.40;;;;;;;18.59;63.12;100309.88;20682695;28;20225;-78
2023/07/19 21:52:27;;;;;;;6.88;3.47;;;;;;;18.86;60.42;100310.69;20666237;28;20288;-79
2023/07/19 22:02:29;;;;;;;5.53;3.78;;;;;;;18.68;62.54;100315.34;20670832;28;20295;-77
2023/07/19 22:12:32;;;;;;;4.15;3.40;;;;;;;18.70;61.29;100309.25;20672260;28;20197;-76
2023/07/19 22:22:34;;;;;;;5.00;3.38;;;;;;;18.67;61.81;100312.88;20707842;28;20682;-78
2023/07/19 22:32:37;;;;;;;6.47;3.88;;;;;;;18.29;61.92;100309.00;20711895;28;20219;-77
2023/07/19 22:42:40;;;;;;;6.65;4.55;;;;;;;18.12;62.23;100306.66;20699709;28;20225;-78
2023/07/19 22:52:50;;;;;;;6.88;4.43;;;;;;;18.54;61.67;100298.00;20724609;28;20251;-78
2023/07/19 23:02:52;;;;;;;8.32;4.47;;;;;;;18.18;62.91;100302.31;20706934;28;20278;-78
2023/07/19 23:12:55;;;;;;;6.63;4.28;;;;;;;18.12;62.28;100304.66;20710534;28;20555;-77
2023/07/19 23:22:59;;;;;;;4.82;3.92;;;;;;;18.44;60.96;100295.81;20705241;28;20221;-77
2023/07/19 23:33:02;;;;;;;7.20;3.78;;;;;;;18.21;61.24;100298.69;20691964;28;20664;-77
2023/07/19 23:43:06;;;;;;;8.43;4.00;;;;;;;18.01;61.05;100306.50;20678180;28;20218;-77
2023/07/19 23:53:08;;;;;;;4.60;3.97;;;;;;;18.00;60.36;100302.00;20710052;28;20244;-78
